createdAt,value
2022-09-10T00:01:36.641Z,79.35
2022-09-10T00:04:10.532Z,79.91
2022-09-10T00:06:38.768Z,80.35
2022-09-10T00:09:09.157Z,78.92
2022-09-10T00:11:38.600Z,79.48
2022-09-10T00:14:08.973Z,79.61
2022-09-10T00:16:36.869Z,78.68
2022-09-10T00:19:06.581Z,79.13
2022-09-10T00:21:35.643Z,79.38
2022-09-10T00:24:05.516Z,80.08
2022-09-10T00:26:39.265Z,79.72
2022-09-10T00:29:10.792Z,79.11
2022-09-10T00:31:39.937Z,80.19
2022-09-10T00:34:09.104Z,80.74
2022-09-10T00:36:40.770Z,80.55
2022-09-10T00:39:11.132Z,80.12
2022-09-10T00:41:42.685Z,80.41
2022-09-10T00:44:58.447Z,80.93
2022-09-10T00:47:33.176Z,80.35
2022-09-10T00:50:13.680Z,81.30
2022-09-10T00:52:42.719Z,81.93
2022-09-10T00:55:12.651Z,81.66
2022-09-10T00:57:43.954Z,81.47
2022-09-10T01:00:15.989Z,80.88
2022-09-10T01:02:44.440Z,82.15
2022-09-10T01:05:12.962Z,81.03
2022-09-10T01:07:40.892Z,80.46
2022-09-10T01:10:18.006Z,80.37
2022-09-10T01:13:21.697Z,80.28
2022-09-10T01:16:03.201Z,80.22
2022-09-10T01:18:47.068Z,81.50
2022-09-10T01:21:30.984Z,81.12
2022-09-10T01:24:47.880Z,81.79
2022-09-10T01:27:45.267Z,81.30
2022-09-10T01:30:19.231Z,80.74
2022-09-10T01:33:04.573Z,80.88
2022-09-10T01:35:43.104Z,81.67
2022-09-10T01:38:21.542Z,81.31
2022-09-10T01:40:49.557Z,80.34
2022-09-10T01:43:18.701Z,81.23
2022-09-10T01:46:01.952Z,81.21
2022-09-10T01:49:14.594Z,80.81
2022-09-10T01:52:06.968Z,82.10
2022-09-10T01:55:03.196Z,81.62
2022-09-10T01:57:44.884Z,83.81
2022-09-10T02:00:18.729Z,84.50
2022-09-10T02:02:57.713Z,84.28
2022-09-10T02:05:28.787Z,83.00
2022-09-10T02:08:03.248Z,83.19
2022-09-10T02:10:31.683Z,82.54
2022-09-10T02:12:59.805Z,82.47
2022-09-10T02:15:32.517Z,83.24
2022-09-10T02:18:01.299Z,82.56
2022-09-10T02:20:31.221Z,83.91
2022-09-10T02:23:01.029Z,81.93
2022-09-10T02:25:36.464Z,82.08
2022-09-10T02:28:05.331Z,81.49
2022-09-10T02:30:34.522Z,82.59
2022-09-10T02:33:02.289Z,82.60
2022-09-10T02:35:31.120Z,81.38
2022-09-10T02:37:59.384Z,81.61
2022-09-10T02:40:31.777Z,80.96
2022-09-10T02:42:59.626Z,82.12
2022-09-10T02:45:27.918Z,81.68
2022-09-10T02:47:57.037Z,81.94
2022-09-10T02:50:25.146Z,82.11
2022-09-10T02:52:53.775Z,81.76
2022-09-10T02:55:21.559Z,81.25
2022-09-10T02:57:49.354Z,83.75
2022-09-10T03:00:17.280Z,82.69
2022-09-10T03:02:46.612Z,80.65
2022-09-10T03:05:16.004Z,81.46
2022-09-10T03:07:44.837Z,82.04
2022-09-10T03:10:12.729Z,82.36
2022-09-10T03:12:40.887Z,82.46
2022-09-10T03:15:10.604Z,80.93
2022-09-10T03:17:38.336Z,81.21
2022-09-10T03:20:08.389Z,81.19
2022-09-10T03:22:38.287Z,80.68
2022-09-10T03:25:08.042Z,81.19
2022-09-10T03:27:35.985Z,81.44
2022-09-10T03:30:04.010Z,82.08
2022-09-10T03:32:32.112Z,81.29
2022-09-10T03:35:00.297Z,81.33
2022-09-10T03:37:28.448Z,82.06
2022-09-10T03:39:57.986Z,82.37
2022-09-10T03:42:26.073Z,82.58
2022-09-10T03:44:54.065Z,81.97
2022-09-10T03:47:21.868Z,81.27
2022-09-10T03:49:50.706Z,81.37
2022-09-10T03:52:19.180Z,82.90
2022-09-10T03:54:46.923Z,81.68
2022-09-10T03:57:16.041Z,83.31
2022-09-10T03:59:43.806Z,81.81
2022-09-10T04:02:11.648Z,81.41
2022-09-10T04:04:39.493Z,82.72
2022-09-10T04:07:08.235Z,80.08
2022-09-10T04:09:36.010Z,80.32
2022-09-10T04:12:04.641Z,82.33
2022-09-10T04:14:34.352Z,82.62
2022-09-10T04:17:02.819Z,81.22
2022-09-10T04:19:30.630Z,81.64
2022-09-10T04:21:58.380Z,81.74
2022-09-10T04:24:26.166Z,81.35
2022-09-10T04:26:53.923Z,80.15
2022-09-10T04:29:23.002Z,81.16
2022-09-10T04:31:52.402Z,80.23
2022-09-10T04:34:20.216Z,80.70
2022-09-10T04:36:47.960Z,81.57
2022-09-10T04:39:15.735Z,81.04
2022-09-10T04:41:44.004Z,79.75
2022-09-10T04:44:11.795Z,80.36
2022-09-10T04:46:41.258Z,80.47
2022-09-10T04:49:11.019Z,81.67
2022-09-10T04:51:38.791Z,83.00
2022-09-10T04:54:06.743Z,81.84
2022-09-10T04:56:34.756Z,82.42
2022-09-10T04:59:02.533Z,82.73
2022-09-10T05:01:31.253Z,83.41
2022-09-10T05:03:59.053Z,83.22
2022-09-10T05:06:28.161Z,84.19
2022-09-10T05:08:56.099Z,82.86
2022-09-10T05:11:25.395Z,82.95
2022-09-10T05:13:53.371Z,81.05
2022-09-10T05:16:21.934Z,81.01
2022-09-10T05:18:49.763Z,82.13
2022-09-10T05:21:18.453Z,81.02
2022-09-10T05:23:47.912Z,81.25
2022-09-10T05:26:15.694Z,81.15
2022-09-10T05:28:43.586Z,81.49
2022-09-10T05:31:11.991Z,82.68
2022-09-10T05:33:40.739Z,85.15
2022-09-10T05:36:10.729Z,84.15
2022-09-10T05:38:40.081Z,81.95
2022-09-10T05:41:12.208Z,84.02
2022-09-10T05:43:41.911Z,81.72
2022-09-10T05:46:10.060Z,80.39
2022-09-10T05:48:41.576Z,80.91
2022-09-10T05:51:09.971Z,80.21
2022-09-10T05:53:38.228Z,80.73
2022-09-10T05:56:07.337Z,82.11
2022-09-10T05:58:36.495Z,80.55
2022-09-10T06:01:04.499Z,80.79
2022-09-10T06:03:32.328Z,78.62
2022-09-10T06:06:00.365Z,78.88
2022-09-10T06:08:28.124Z,78.59
2022-09-10T06:10:58.073Z,79.70
2022-09-10T06:13:26.243Z,78.31
2022-09-10T06:15:55.505Z,77.66
2022-09-10T06:18:23.289Z,76.95
2022-09-10T06:20:52.050Z,78.35
2022-09-10T06:23:19.911Z,77.78
2022-09-10T06:25:48.343Z,78.23
2022-09-10T06:28:16.113Z,76.94
2022-09-10T06:30:43.886Z,76.84
2022-09-10T06:33:13.230Z,77.00
2022-09-10T06:35:41.017Z,76.14
2022-09-10T06:38:08.785Z,77.61
2022-09-10T06:40:38.069Z,76.45
2022-09-10T06:43:06.052Z,76.01
2022-09-10T06:45:33.916Z,74.99
2022-09-10T06:50:56.801Z,74.87
2022-09-10T06:53:26.724Z,75.61
2022-09-10T06:55:55.961Z,75.89
2022-09-10T06:58:24.953Z,74.67
2022-09-10T07:00:53.086Z,74.11
2022-09-10T07:03:22.862Z,74.63
2022-09-10T07:05:53.372Z,74.19
2022-09-10T07:08:22.521Z,74.11
2022-09-10T07:10:50.402Z,74.52
2022-09-10T07:13:18.230Z,73.53
2022-09-10T07:15:47.047Z,74.27
2022-09-10T07:18:15.382Z,73.91
2022-09-10T07:20:44.286Z,72.83
2022-09-10T07:23:13.216Z,72.94
2022-09-10T07:25:43.236Z,73.12
2022-09-10T07:28:15.773Z,73.56
2022-09-10T07:30:44.878Z,73.10
2022-09-10T07:33:12.673Z,73.93
2022-09-10T07:35:40.965Z,73.60
2022-09-10T07:38:16.427Z,72.88
2022-09-10T07:40:45.516Z,73.56
2022-09-10T07:43:13.329Z,72.47
2022-09-10T07:45:41.568Z,72.84
2022-09-10T07:48:09.428Z,74.10
2022-09-10T07:50:37.268Z,73.12
2022-09-10T07:53:05.326Z,71.88
2022-09-10T07:55:33.093Z,73.26
2022-09-10T07:58:02.212Z,72.70
2022-09-10T08:00:30.927Z,72.61
2022-09-10T08:02:58.914Z,74.51
2022-09-10T08:05:28.807Z,72.24
2022-09-10T08:07:57.121Z,72.76
2022-09-10T08:10:24.912Z,73.57
2022-09-10T08:12:52.704Z,71.83
2022-09-10T08:15:23.315Z,71.64
2022-09-10T08:17:51.135Z,71.58
2022-09-10T08:20:19.160Z,70.89
2022-09-10T08:22:50.221Z,71.54
2022-09-10T08:25:20.937Z,71.94
2022-09-10T08:27:48.779Z,72.17
2022-09-10T08:30:16.884Z,72.07
2022-09-10T08:32:45.993Z,71.49
2022-09-10T08:35:14.541Z,71.46
2022-09-10T08:37:42.637Z,70.30
2022-09-10T08:40:13.336Z,69.22
2022-09-10T08:42:47.012Z,69.76
2022-09-10T08:45:19.750Z,70.31
2022-09-10T08:47:59.605Z,70.38
2022-09-10T08:50:42.433Z,71.65
2022-09-10T08:53:26.763Z,69.21
2022-09-10T08:55:59.926Z,67.75
2022-09-10T08:58:40.697Z,68.72
2022-09-10T09:01:15.909Z,67.58
2022-09-10T09:03:48.584Z,69.86
2022-09-10T09:06:30.183Z,69.13
2022-09-10T09:09:00.870Z,69.61
2022-09-10T09:11:42.149Z,68.92
2022-09-10T09:14:25.888Z,68.02
2022-09-10T09:17:17.734Z,67.22
2022-09-10T09:20:01.612Z,68.29
2022-09-10T09:22:45.758Z,67.96
2022-09-10T09:25:27.172Z,69.47
2022-09-10T09:27:57.142Z,69.39
2022-09-10T09:30:32.017Z,67.00
2022-09-10T09:33:12.223Z,67.63
2022-09-10T09:35:48.536Z,67.88
2022-09-10T09:38:23.722Z,68.73
2022-09-10T09:40:56.252Z,69.33
2022-09-10T09:43:38.478Z,68.04
2022-09-10T09:46:16.067Z,67.42
2022-09-10T09:48:45.046Z,66.09
2022-09-10T09:51:20.958Z,67.58
2022-09-10T09:54:01.031Z,67.16
2022-09-10T09:56:49.822Z,66.63
2022-09-10T09:59:29.159Z,65.74
2022-09-10T10:02:05.986Z,65.71
2022-09-10T10:04:36.220Z,65.96
2022-09-10T10:07:08.521Z,68.37
2022-09-10T10:09:43.557Z,69.64
2022-09-10T10:12:21.124Z,68.89
2022-09-10T10:14:49.861Z,67.25
2022-09-10T10:17:37.974Z,67.34
2022-09-10T10:20:13.483Z,66.44
2022-09-10T10:22:45.121Z,65.29
2022-09-10T10:25:38.189Z,67.73
2022-09-10T10:28:20.134Z,68.20
2022-09-10T10:30:54.457Z,66.69
2022-09-10T10:33:29.761Z,66.31
2022-09-10T10:36:14.709Z,64.66
2022-09-10T10:38:55.625Z,64.58
2022-09-10T10:42:00.271Z,65.41
2022-09-10T10:44:48.061Z,64.98
2022-09-10T10:47:33.990Z,64.68
2022-09-10T10:50:22.007Z,64.36
2022-09-10T10:53:12.375Z,63.82
2022-09-10T10:55:48.101Z,64.13
2022-09-10T10:58:39.025Z,66.03
2022-09-10T11:01:19.014Z,65.42
2022-09-10T11:04:00.589Z,65.15
2022-09-10T11:06:35.908Z,66.52
2022-09-10T11:09:13.556Z,65.12
2022-09-10T11:11:57.371Z,66.42
2022-09-10T11:14:36.831Z,65.42
2022-09-10T11:17:13.311Z,65.40
2022-09-10T11:20:00.546Z,63.77
2022-09-10T11:22:45.277Z,62.30
2022-09-10T11:25:26.292Z,62.39
2022-09-10T11:28:05.183Z,61.99
2022-09-10T11:30:35.806Z,61.80
2022-09-10T11:33:15.949Z,63.39
2022-09-10T11:35:52.125Z,62.86
2022-09-10T11:38:25.375Z,63.73
2022-09-10T11:41:07.672Z,63.61
2022-09-10T11:43:46.390Z,63.23
2022-09-10T11:46:21.230Z,63.67
2022-09-10T11:48:55.918Z,63.19
2022-09-10T11:51:30.518Z,64.01
2022-09-10T11:53:58.917Z,63.77
2022-09-10T11:56:52.871Z,63.68
2022-09-10T11:59:46.123Z,62.87
2022-09-10T12:03:02.648Z,64.47
2022-09-10T12:05:43.779Z,65.29
2022-09-10T12:08:29.608Z,65.38
2022-09-10T12:11:15.221Z,63.10
2022-09-10T12:13:47.191Z,64.18
2022-09-10T12:16:30.282Z,63.30
2022-09-10T12:19:02.972Z,63.27
2022-09-10T12:21:37.520Z,62.95
2022-09-10T12:24:26.658Z,63.75
2022-09-10T12:26:56.109Z,61.62
2022-09-10T12:29:33.181Z,62.32
2022-09-10T12:32:32.355Z,59.93
2022-09-10T12:35:46.763Z,59.68
2022-09-10T12:38:56.620Z,60.55
2022-09-10T12:41:57.889Z,61.16
2022-09-10T12:44:47.072Z,59.61
2022-09-10T12:47:41.078Z,59.66
2022-09-10T12:50:24.583Z,60.32
2022-09-10T12:53:34.367Z,58.65
2022-09-10T12:56:19.323Z,58.09
2022-09-10T12:59:08.190Z,59.97
2022-09-10T13:01:44.104Z,59.80
2022-09-10T13:04:29.394Z,61.41
2022-09-10T13:07:01.841Z,60.75
2022-09-10T13:09:34.494Z,61.66
2022-09-10T13:12:17.402Z,60.61
2022-09-10T13:14:50.735Z,60.86
2022-09-10T13:18:12.462Z,58.16
2022-09-10T13:20:41.580Z,59.54
2022-09-10T13:23:23.338Z,57.79
2022-09-10T13:25:52.802Z,58.91
2022-09-10T13:29:02.839Z,58.07
2022-09-10T13:31:35.802Z,58.46
2022-09-10T13:34:52.797Z,57.40
2022-09-10T13:37:47.605Z,57.41
2022-09-10T13:41:06.413Z,56.93
2022-09-10T13:44:07.907Z,55.87
2022-09-10T13:46:42.537Z,54.90
2022-09-10T13:49:19.111Z,56.06
2022-09-10T13:51:53.022Z,58.49
2022-09-10T13:54:35.512Z,61.22
2022-09-10T13:57:13.196Z,61.76
2022-09-10T13:59:43.768Z,62.90
2022-09-10T14:02:11.571Z,64.64
2022-09-10T14:04:44.968Z,64.50
2022-09-10T14:07:20.270Z,65.19
2022-09-10T14:09:56.721Z,65.04
2022-09-10T14:12:29.488Z,64.88
2022-09-10T14:15:04.452Z,65.08
2022-09-10T14:17:41.357Z,65.12
2022-09-10T14:20:24.274Z,64.60
2022-09-10T14:23:00.149Z,63.53
2022-09-10T14:25:33.682Z,65.15
2022-09-10T14:28:28.916Z,65.38
2022-09-10T14:31:29.889Z,64.91
2022-09-10T14:34:00.168Z,62.93
2022-09-10T14:36:35.360Z,63.03
2022-09-10T14:39:07.866Z,65.49
2022-09-10T14:41:37.770Z,63.56
2022-09-10T14:44:30.453Z,63.05
2022-09-10T14:47:00.944Z,62.19
2022-09-10T14:49:32.457Z,61.84
2022-09-10T14:52:01.986Z,60.56
2022-09-10T14:54:32.692Z,60.24
2022-09-10T14:57:06.558Z,60.79
2022-09-10T14:59:38.575Z,60.52
2022-09-10T15:02:17.089Z,58.45
2022-09-10T15:04:45.113Z,59.57
2022-09-10T15:07:13.804Z,59.15
2022-09-10T15:09:42.139Z,59.96
2022-09-10T15:12:25.728Z,58.64
2022-09-10T15:14:53.688Z,58.86
2022-09-10T15:17:21.912Z,58.75
2022-09-10T15:19:49.884Z,60.76
2022-09-10T15:22:23.330Z,61.57
2022-09-10T15:25:09.989Z,62.64
2022-09-10T15:27:39.629Z,63.40
2022-09-10T15:30:08.932Z,62.79
2022-09-10T15:32:36.720Z,62.51
2022-09-10T15:35:05.682Z,64.48
2022-09-10T15:37:33.662Z,66.23
2022-09-10T15:40:01.524Z,66.61
2022-09-10T15:42:29.409Z,65.53
2022-09-10T15:44:58.574Z,66.54
2022-09-10T15:47:27.029Z,64.93
2022-09-10T15:49:54.889Z,65.37
2022-09-10T15:52:22.675Z,67.08
2022-09-10T15:54:50.531Z,66.00
2022-09-10T15:57:18.388Z,66.33
2022-09-10T15:59:47.162Z,65.67
2022-09-10T16:02:16.512Z,67.19
2022-09-10T16:04:44.329Z,67.67
2022-09-10T16:07:13.744Z,67.51
2022-09-10T16:09:42.387Z,67.05
2022-09-10T16:12:10.209Z,67.87
2022-09-10T16:14:38.198Z,66.25
2022-09-10T16:17:10.520Z,65.96
2022-09-10T16:19:39.798Z,66.84
2022-09-10T16:22:08.094Z,68.28
2022-09-10T16:24:36.015Z,66.05
2022-09-10T16:27:03.999Z,67.14
2022-09-10T16:29:32.592Z,66.96
2022-09-10T16:32:00.709Z,67.73
2022-09-10T16:34:28.824Z,67.31
2022-09-10T16:36:57.998Z,67.25
2022-09-10T16:39:26.068Z,66.56
2022-09-10T16:41:56.508Z,66.96
2022-09-10T16:44:24.726Z,66.58
2022-09-10T16:46:52.551Z,67.23
2022-09-10T16:49:20.575Z,67.19
2022-09-10T16:51:49.966Z,67.66
2022-09-10T16:54:21.084Z,69.10
2022-09-10T16:56:50.212Z,68.43
2022-09-10T16:59:21.383Z,68.98
2022-09-10T17:01:51.799Z,68.07
2022-09-10T17:04:28.358Z,69.01
2022-09-10T17:06:58.029Z,68.28
2022-09-10T17:09:27.568Z,70.29
2022-09-10T17:11:55.901Z,69.26
2022-09-10T17:14:24.460Z,70.83
2022-09-10T17:16:53.166Z,69.18
2022-09-10T17:19:23.984Z,70.43
2022-09-10T17:21:55.278Z,69.27
2022-09-10T17:24:26.501Z,69.30
2022-09-10T17:26:56.210Z,68.50
2022-09-10T17:29:26.709Z,68.33
2022-09-10T17:31:57.298Z,70.22
2022-09-10T17:34:28.228Z,70.52
2022-09-10T17:36:56.163Z,70.36
2022-09-10T17:39:28.096Z,70.11
2022-09-10T17:41:58.026Z,68.77
2022-09-10T17:44:26.915Z,67.51
2022-09-10T17:46:56.993Z,67.97
2022-09-10T17:49:25.389Z,69.27
2022-09-10T17:51:54.141Z,69.48
2022-09-10T17:54:23.515Z,67.12
2022-09-10T17:56:51.787Z,67.19
2022-09-10T17:59:21.922Z,67.18
2022-09-10T18:01:49.707Z,67.69
2022-09-10T18:04:19.468Z,68.66
2022-09-10T18:06:52.022Z,67.93
2022-09-10T18:09:23.592Z,67.74
2022-09-10T18:11:51.373Z,68.01
2022-09-10T18:14:21.881Z,69.54
2022-09-10T18:16:51.361Z,69.73
2022-09-10T18:19:19.910Z,70.18
2022-09-10T18:21:49.342Z,69.76
2022-09-10T18:24:22.399Z,68.45
2022-09-10T18:26:53.230Z,68.22
2022-09-10T18:29:25.537Z,68.11
2022-09-10T18:31:56.876Z,67.93
2022-09-10T18:34:27.593Z,68.83
2022-09-10T18:37:00.932Z,69.69
2022-09-10T18:39:31.598Z,68.88
2022-09-10T18:42:00.922Z,68.58
2022-09-10T18:44:34.129Z,69.06
2022-09-10T18:47:02.254Z,69.00
2022-09-10T18:49:30.234Z,69.88
2022-09-10T18:51:58.527Z,69.42
2022-09-10T18:54:29.070Z,70.44
2022-09-10T18:56:58.185Z,70.32
2022-09-10T18:59:27.370Z,69.67
2022-09-10T19:01:56.879Z,70.41
2022-09-10T19:04:28.009Z,70.91
2022-09-10T19:06:57.274Z,70.10
2022-09-10T19:09:26.960Z,70.86
2022-09-10T19:11:57.591Z,71.46
2022-09-10T19:14:29.244Z,72.22
2022-09-10T19:17:00.501Z,72.37
2022-09-10T19:19:31.896Z,71.75
2022-09-10T19:22:04.593Z,72.08
2022-09-10T19:24:53.305Z,71.74
2022-09-10T19:27:21.134Z,71.33
2022-09-10T19:29:49.782Z,72.05
2022-09-10T19:32:19.742Z,72.56
2022-09-10T19:34:50.925Z,72.54
2022-09-10T19:37:19.594Z,72.42
2022-09-10T19:39:47.720Z,73.43
2022-09-10T19:42:16.459Z,73.41
2022-09-10T19:44:44.608Z,73.05
2022-09-10T19:47:12.691Z,72.82
2022-09-10T19:49:41.791Z,72.40
2022-09-10T19:52:11.044Z,75.31
2022-09-10T19:54:38.986Z,76.03
2022-09-10T19:57:06.798Z,74.04
2022-09-10T19:59:35.539Z,74.16
2022-09-10T20:02:03.432Z,74.80
2022-09-10T20:04:31.376Z,74.33
2022-09-10T20:07:01.263Z,73.82
2022-09-10T20:09:29.096Z,73.66
2022-09-10T20:11:59.007Z,74.15
2022-09-10T20:14:26.887Z,74.42
2022-09-10T20:16:57.764Z,74.20
2022-09-10T20:19:29.039Z,75.52
2022-09-10T20:21:56.925Z,75.64
2022-09-10T20:24:28.450Z,76.72
2022-09-10T20:26:57.163Z,75.06
2022-09-10T20:29:25.555Z,77.23
2022-09-10T20:31:55.976Z,76.78
2022-09-10T20:34:26.635Z,76.86
2022-09-10T20:36:54.485Z,77.16
2022-09-10T20:39:25.848Z,76.70
2022-09-10T20:41:55.815Z,77.22
2022-09-10T20:44:23.826Z,76.29
2022-09-10T20:46:51.741Z,76.45
2022-09-10T20:49:19.685Z,75.78
2022-09-10T20:51:48.334Z,76.74
2022-09-10T20:54:19.871Z,78.20
2022-09-10T20:56:49.715Z,78.53
2022-09-10T20:59:19.178Z,78.13
2022-09-10T21:01:51.371Z,77.64
2022-09-10T21:04:19.916Z,79.14
2022-09-10T21:06:47.856Z,78.62
2022-09-10T21:09:15.849Z,78.75
2022-09-10T21:11:43.641Z,76.91
2022-09-10T21:14:14.336Z,77.08
2022-09-10T21:16:45.847Z,77.88
2022-09-10T21:19:16.292Z,77.08
2022-09-10T21:21:48.666Z,76.98
2022-09-10T21:24:19.550Z,77.33
2022-09-10T21:26:47.441Z,78.25
2022-09-10T21:29:20.313Z,79.17
2022-09-10T21:31:50.540Z,78.20
2022-09-10T21:34:19.284Z,76.87
2022-09-10T21:36:47.315Z,77.67
2022-09-10T21:39:17.473Z,77.95
2022-09-10T21:41:47.995Z,77.92
2022-09-10T21:44:19.797Z,78.06
2022-09-10T21:46:49.565Z,79.82
2022-09-10T21:49:18.389Z,79.10
2022-09-10T21:51:46.701Z,78.57
2022-09-10T21:54:18.716Z,78.58
2022-09-10T21:56:48.938Z,79.32
2022-09-10T21:59:18.758Z,79.03
2022-09-10T22:01:47.628Z,79.98
2022-09-10T22:04:21.504Z,79.68
2022-09-10T22:06:51.056Z,80.41
2022-09-10T22:09:19.827Z,82.63
2022-09-10T22:11:52.029Z,81.99
2022-09-10T22:14:24.138Z,81.14
2022-09-10T22:16:53.322Z,82.10
2022-09-10T22:19:24.502Z,81.61
2022-09-10T22:21:54.138Z,80.62
2022-09-10T22:24:22.304Z,80.39
2022-09-10T22:26:50.311Z,79.65
2022-09-10T22:29:21.571Z,79.95
2022-09-10T22:31:50.087Z,79.53
2022-09-10T22:34:19.639Z,79.30
2022-09-10T22:36:49.461Z,79.78
2022-09-10T22:39:20.819Z,80.34
2022-09-10T22:41:50.467Z,80.55
2022-09-10T22:44:19.850Z,81.24
2022-09-10T22:46:49.089Z,80.80
2022-09-10T22:49:17.920Z,82.20
2022-09-10T22:51:46.200Z,82.81
2022-09-10T22:54:14.510Z,84.17
2022-09-10T22:56:43.103Z,86.49
2022-09-10T22:59:14.633Z,85.11
2022-09-10T23:01:47.406Z,83.98
2022-09-10T23:04:17.276Z,86.18
2022-09-10T23:06:45.391Z,86.47
2022-09-10T23:09:16.359Z,88.30
2022-09-10T23:11:45.503Z,87.71
2022-09-10T23:14:17.833Z,86.79
2022-09-10T23:16:48.670Z,86.74
2022-09-10T23:19:21.502Z,87.90
2022-09-10T23:21:52.158Z,87.85
2022-09-10T23:24:24.119Z,86.61
2022-09-10T23:26:52.314Z,86.22
2022-09-10T23:29:20.538Z,86.16
2022-09-10T23:31:49.826Z,84.95
2022-09-10T23:34:21.049Z,84.11
2022-09-10T23:36:50.701Z,84.25
2022-09-10T23:39:21.194Z,84.12
2022-09-10T23:41:49.541Z,84.08
2022-09-10T23:44:18.165Z,84.84
2022-09-10T23:46:46.229Z,89.05
2022-09-10T23:49:14.186Z,87.60
2022-09-10T23:51:43.883Z,88.62
2022-09-10T23:54:12.761Z,88.33
2022-09-10T23:56:40.951Z,86.65
2022-09-10T23:59:09.514Z,87.13
